Weather at Altiport du Plateau de la Calme [CLOSED]

Public forecast

Using degrees Celsius for public forecast. Weather courtesy of forecast.io.

Closest aviation weather report (METAR) to Altiport du Plateau de la Calme

Report is more than 6 hours old.

Closest report is Pirineus - la Seu d'Urgel Airport, 28.8 nm (53.3 km) WSW. Retrieved 2020/09/28 16:30 UTC (2 days ago):

LESU 281630Z 22010KT 9999 FEW060 19/07 Q1016

Closest aviation forecast (TAF) to Altiport du Plateau de la Calme

Forecast is more than 12 hours old.

Closest forecast is Pirineus - la Seu d'Urgel Airport, 28.8 nm (53.3 km) WSW. Retrieved 2020/09/28 15:00 UTC (2 days ago):

TAF LESU 281400Z 2815/2915 VRB04KT CAVOK TX24/2913Z TN06/2905Z PROB40 TEMPO 2912/2915 20008KT